createdAt,value
2018-09-15T00:00:53.115Z,101746.48
2018-09-15T00:03:23.354Z,101749.42
2018-09-15T00:05:52.524Z,101754.18
2018-09-15T00:08:22.444Z,101751.52
2018-09-15T00:10:52.360Z,101757.32
2018-09-15T00:13:23.020Z,101749.03
2018-09-15T00:15:51.874Z,101743.39
2018-09-15T00:18:20.780Z,101746.67
2018-09-15T00:20:49.778Z,101746.02
2018-09-15T00:23:19.690Z,101749.03
2018-09-15T00:25:49.620Z,101744.66
2018-09-15T00:28:19.527Z,101751.01
2018-09-15T00:30:48.420Z,101748.73
2018-09-15T00:33:17.406Z,101750.23
2018-09-15T00:35:47.296Z,101749.03
2018-09-15T00:38:16.165Z,101748.27
2018-09-15T00:40:45.092Z,101746.83
2018-09-15T00:43:15.044Z,101747.41
2018-09-15T00:45:43.936Z,101748.72
2018-09-15T00:48:12.909Z,101754.44
2018-09-15T00:50:42.812Z,101752.16
2018-09-15T00:53:11.693Z,101751.36
2018-09-15T00:55:40.774Z,101757.16
2018-09-15T00:58:09.674Z,101759.71
2018-09-15T01:00:39.803Z,101759.41
2018-09-15T01:03:08.702Z,101767.98
2018-09-15T01:05:37.717Z,101762.69
2018-09-15T01:08:06.708Z,101756.77
2018-09-15T01:10:35.676Z,101751.66
2018-09-15T01:13:05.651Z,101754.38
2018-09-15T01:15:34.610Z,101761.48
2018-09-15T01:18:03.855Z,101756.08
2018-09-15T01:20:32.785Z,101749.06
2018-09-15T01:23:01.828Z,101752.78
2018-09-15T01:25:30.786Z,101750.39
2018-09-15T01:27:59.822Z,101753.52
2018-09-15T01:30:28.725Z,101750.70
2018-09-15T01:32:57.653Z,101749.58
2018-09-15T01:35:26.616Z,101752.95
2018-09-15T01:37:56.035Z,101747.84
2018-09-15T01:40:25.095Z,101745.13
2018-09-15T01:42:54.002Z,101747.17
2018-09-15T01:45:23.996Z,101748.61
2018-09-15T01:47:53.968Z,101742.88
2018-09-15T01:50:22.937Z,101743.61
2018-09-15T01:52:51.892Z,101739.70
2018-09-15T01:55:20.906Z,101744.77
2018-09-15T01:57:49.829Z,101743.02
2018-09-15T02:00:18.735Z,101744.38
2018-09-15T02:02:47.673Z,101743.56
2018-09-15T02:05:16.653Z,101745.88
2018-09-15T02:07:45.576Z,101740.94
2018-09-15T02:10:15.708Z,101739.94
2018-09-15T02:12:44.608Z,101747.33
2018-09-15T02:15:13.607Z,101751.91
2018-09-15T02:17:42.508Z,101753.64
2018-09-15T02:20:11.798Z,101758.75
2018-09-15T02:22:40.835Z,101749.81
2018-09-15T02:25:09.827Z,101751.98
2018-09-15T02:27:39.808Z,101752.64
2018-09-15T02:30:08.819Z,101758.82
2018-09-15T02:32:37.799Z,101758.86
2018-09-15T02:35:07.695Z,101752.25
2018-09-15T02:37:37.705Z,101755.19
2018-09-15T02:40:06.678Z,101752.63
2018-09-15T02:42:35.585Z,101755.17
2018-09-15T02:45:04.599Z,101757.11
2018-09-15T02:47:33.572Z,101757.90
2018-09-15T02:50:02.700Z,101758.91
2018-09-15T02:52:31.676Z,101760.17
2018-09-15T02:55:00.677Z,101762.34
2018-09-15T02:57:30.581Z,101761.72
2018-09-15T02:59:59.449Z,101761.64
2018-09-15T03:02:28.338Z,101762.88
2018-09-15T03:04:57.422Z,101762.91
2018-09-15T03:07:26.419Z,101755.50
2018-09-15T03:09:55.328Z,101766.11
2018-09-15T03:12:24.244Z,101762.20
2018-09-15T03:14:53.254Z,101764.02
2018-09-15T03:17:22.207Z,101771.49
2018-09-15T03:19:51.129Z,101766.26
2018-09-15T03:22:21.066Z,101778.05
2018-09-15T03:24:50.036Z,101777.77
2018-09-15T03:27:19.025Z,101766.94
2018-09-15T03:29:48.921Z,101768.80
2018-09-15T03:32:18.867Z,101768.64
2018-09-15T03:34:47.856Z,101765.13
2018-09-15T03:37:17.006Z,101773.34
2018-09-15T03:39:46.922Z,101770.69
2018-09-15T03:42:15.877Z,101777.23
2018-09-15T03:44:44.848Z,101773.66
2018-09-15T03:47:13.744Z,101771.23
2018-09-15T03:49:42.704Z,101778.81
2018-09-15T03:52:11.655Z,101775.63
2018-09-15T03:54:40.596Z,101773.63
2018-09-15T03:57:09.535Z,101768.38
2018-09-15T03:59:38.535Z,101766.55
2018-09-15T04:02:07.538Z,101775.20
2018-09-15T04:04:36.443Z,101783.58
2018-09-15T04:07:05.360Z,101784.45
2018-09-15T04:09:35.329Z,101788.05
2018-09-15T04:12:06.239Z,101792.09
2018-09-15T04:14:35.418Z,101797.97
2018-09-15T04:17:04.291Z,101794.59
2018-09-15T04:19:33.169Z,101798.61
2018-09-15T04:22:02.607Z,101795.91
2018-09-15T04:24:31.593Z,101790.52
2018-09-15T04:27:01.527Z,101793.52
2018-09-15T04:29:30.512Z,101796.09
2018-09-15T04:32:00.542Z,101801.98
2018-09-15T04:34:29.543Z,101807.86
2018-09-15T04:36:58.500Z,101803.44
2018-09-15T04:39:27.411Z,101808.39
2018-09-15T04:41:57.345Z,101807.44
2018-09-15T04:44:26.311Z,101807.86
2018-09-15T04:46:55.274Z,101809.52
2018-09-15T04:49:24.235Z,101805.38
2018-09-15T04:51:54.117Z,101810.11
2018-09-15T04:54:23.111Z,101809.53
2018-09-15T04:56:52.095Z,101805.38
2018-09-15T04:59:22.032Z,101807.77
2018-09-15T05:01:50.982Z,101808.63
2018-09-15T05:04:20.105Z,101811.88
2018-09-15T05:06:49.102Z,101814.39
2018-09-15T05:09:18.117Z,101818.50
2018-09-15T05:11:47.575Z,101825.39
2018-09-15T05:14:16.992Z,101820.57
2018-09-15T05:16:45.892Z,101834.36
2018-09-15T05:19:15.763Z,101829.81
2018-09-15T05:21:44.750Z,101824.98
2018-09-15T05:24:13.690Z,101825.71
2018-09-15T05:26:43.596Z,101823.91
2018-09-15T05:29:13.509Z,101826.20
2018-09-15T05:31:43.468Z,101827.33
2018-09-15T05:34:12.421Z,101830.52
2018-09-15T05:36:41.304Z,101833.05
2018-09-15T05:39:12.767Z,101834.45
2018-09-15T05:41:43.639Z,101833.28
2018-09-15T05:44:12.652Z,101839.77
2018-09-15T05:46:42.570Z,101844.38
2018-09-15T05:49:11.524Z,101846.58
2018-09-15T05:51:40.558Z,101852.48
2018-09-15T05:54:10.540Z,101857.49
2018-09-15T05:56:39.687Z,101860.79
2018-09-15T05:59:08.632Z,101860.37
2018-09-15T06:01:37.630Z,101871.59
2018-09-15T06:04:06.595Z,101870.72
2018-09-15T06:06:35.648Z,101878.53
2018-09-15T06:09:06.756Z,101880.39
2018-09-15T06:11:36.883Z,101879.75
2018-09-15T06:14:05.959Z,101880.55
2018-09-15T06:16:34.964Z,101872.38
2018-09-15T06:19:04.059Z,101878.02
2018-09-15T06:21:33.147Z,101887.21
2018-09-15T06:24:02.655Z,101889.47
2018-09-15T06:26:33.232Z,101894.64
2018-09-15T06:29:02.155Z,101900.84
2018-09-15T06:31:32.119Z,101908.74
2018-09-15T06:34:02.090Z,101906.27
2018-09-15T06:36:32.071Z,101909.79
2018-09-15T06:39:00.992Z,101912.13
2018-09-15T06:41:30.201Z,101908.23
2018-09-15T06:43:59.176Z,101906.31
2018-09-15T06:46:28.428Z,101903.55
2018-09-15T06:48:57.416Z,101900.85
2018-09-15T06:51:26.381Z,101907.87
2018-09-15T06:53:58.394Z,101903.14
2018-09-15T06:56:28.393Z,101904.03
2018-09-15T06:58:57.372Z,101915.43
2018-09-15T07:01:26.456Z,101921.08
2018-09-15T07:03:55.452Z,101919.88
2018-09-15T07:06:24.406Z,101921.30
2018-09-15T07:08:53.549Z,101924.30
2018-09-15T07:11:23.441Z,101932.67
2018-09-15T07:13:53.335Z,101937.78
2018-09-15T07:16:22.222Z,101944.06
2018-09-15T07:18:51.277Z,101944.30
2018-09-15T07:21:20.256Z,101941.66
2018-09-15T07:23:51.148Z,101939.54
2018-09-15T07:26:20.098Z,101948.20
2018-09-15T07:28:49.098Z,101954.53
2018-09-15T07:31:18.222Z,101955.30
2018-09-15T07:33:47.185Z,101959.92
2018-09-15T07:36:17.377Z,101963.52
2018-09-15T07:38:46.364Z,101960.89
2018-09-15T07:41:15.314Z,101967.52
2018-09-15T07:43:44.233Z,101968.72
2018-09-15T07:46:14.283Z,101963.52
2018-09-15T07:48:43.250Z,101966.93
2018-09-15T07:51:12.122Z,101969.92
2018-09-15T07:53:41.025Z,101969.64
2018-09-15T07:56:10.199Z,101970.45
2018-09-15T07:58:39.201Z,101984.17
2018-09-15T08:01:08.077Z,101980.80
2018-09-15T08:03:37.127Z,101981.39
2018-09-15T08:06:06.197Z,101977.94
2018-09-15T08:08:35.104Z,101975.68
2018-09-15T08:11:05.006Z,101975.83
2018-09-15T08:13:34.935Z,101981.38
2018-09-15T08:16:04.314Z,101975.98
2018-09-15T08:18:33.319Z,101980.87
2018-09-15T08:21:02.595Z,101989.23
2018-09-15T08:23:31.510Z,101992.23
2018-09-15T08:26:01.462Z,101989.34
2018-09-15T08:28:31.479Z,101990.86
2018-09-15T08:31:00.643Z,101994.53
2018-09-15T08:33:29.527Z,101988.70
2018-09-15T08:35:59.575Z,102001.91
2018-09-15T08:38:28.587Z,102009.31
2018-09-15T08:40:57.528Z,102003.55
2018-09-15T08:43:27.414Z,102002.03
2018-09-15T08:45:56.346Z,102004.28
2018-09-15T08:48:25.284Z,102008.73
2018-09-15T08:50:54.267Z,102008.36
2018-09-15T08:53:24.300Z,102007.53
2018-09-15T08:55:54.256Z,102010.42
2018-09-15T08:58:23.143Z,102010.05
2018-09-15T09:00:52.180Z,102024.61
2018-09-15T09:03:22.244Z,102019.69
2018-09-15T09:05:53.795Z,102013.95
2018-09-15T09:08:24.623Z,102012.36
2018-09-15T09:10:53.555Z,102014.54
2018-09-15T09:13:23.478Z,102021.23
2018-09-15T09:15:52.593Z,102015.97
2018-09-15T09:18:21.725Z,102029.66
2018-09-15T09:20:50.804Z,102034.31
2018-09-15T09:23:19.734Z,102034.58
2018-09-15T09:25:49.646Z,102031.02
2018-09-15T09:28:18.559Z,102029.69
2018-09-15T09:30:47.535Z,102032.59
2018-09-15T09:33:16.690Z,102032.12
2018-09-15T09:35:45.902Z,102032.80
2018-09-15T09:38:14.887Z,102031.39
2018-09-15T09:40:43.805Z,102019.61
2018-09-15T09:43:13.779Z,102013.33
2018-09-15T09:45:43.669Z,102017.50
2018-09-15T09:48:12.695Z,102023.12
2018-09-15T09:50:41.943Z,102017.84
2018-09-15T09:53:10.946Z,102012.28
2018-09-15T09:55:40.837Z,102015.30
2018-09-15T09:58:10.791Z,102016.14
2018-09-15T10:00:45.178Z,102011.58
2018-09-15T10:03:15.449Z,102021.04
2018-09-15T10:05:44.393Z,102024.84
2018-09-15T10:08:13.274Z,102023.75
2018-09-15T10:10:42.175Z,102022.39
2018-09-15T10:13:11.442Z,102027.08
2018-09-15T10:15:41.978Z,102019.58
2018-09-15T10:18:12.688Z,102015.25
2018-09-15T10:20:42.642Z,102022.74
2018-09-15T10:23:12.600Z,102018.20
2018-09-15T10:25:41.691Z,102012.69
2018-09-15T10:28:10.568Z,102009.06
2018-09-15T10:30:39.661Z,102016.45
2018-09-15T10:33:09.608Z,102012.14
2018-09-15T10:35:39.644Z,102009.98
2018-09-15T10:38:08.640Z,102019.33
2018-09-15T10:40:37.603Z,102023.09
2018-09-15T10:43:06.648Z,102027.17
2018-09-15T10:45:35.599Z,102026.33
2018-09-15T10:48:04.542Z,102023.61
2018-09-15T10:50:34.491Z,102017.80
2018-09-15T10:53:03.458Z,102019.82
2018-09-15T10:55:33.350Z,102019.17
2018-09-15T10:58:02.278Z,102019.61
2018-09-15T11:00:31.381Z,102022.45
2018-09-15T11:03:00.258Z,102018.72
2018-09-15T11:05:29.244Z,102012.97
2018-09-15T11:07:59.214Z,102012.16
2018-09-15T11:10:28.293Z,102011.11
2018-09-15T11:12:57.237Z,102007.56
2018-09-15T11:15:27.159Z,102010.79
2018-09-15T11:17:56.278Z,102009.63
2018-09-15T11:20:26.174Z,102001.95
2018-09-15T11:22:55.312Z,102009.41
2018-09-15T11:25:24.648Z,102005.41
2018-09-15T11:27:54.344Z,102006.34
2018-09-15T11:30:23.355Z,102012.70
2018-09-15T11:32:52.377Z,102014.06
2018-09-15T11:35:22.879Z,102016.02
2018-09-15T11:37:52.296Z,102014.00
2018-09-15T11:40:23.033Z,102010.42
2018-09-15T11:42:54.422Z,102008.81
2018-09-15T11:45:23.373Z,102008.04
2018-09-15T11:47:52.654Z,102010.22
2018-09-15T11:50:22.576Z,102012.47
2018-09-15T11:52:51.521Z,102011.00
2018-09-15T11:55:20.482Z,102006.18
2018-09-15T11:57:50.568Z,102010.79
2018-09-15T12:00:23.153Z,102012.91
2018-09-15T12:02:52.098Z,102010.66
2018-09-15T12:05:21.127Z,102014.66
2018-09-15T12:07:50.135Z,102013.59
2018-09-15T12:10:19.046Z,102028.24
2018-09-15T12:12:49.374Z,102028.99
2018-09-15T12:15:18.705Z,102026.73
2018-09-15T12:17:47.800Z,102028.35
2018-09-15T12:20:17.724Z,102029.06
2018-09-15T12:22:47.643Z,102026.03
2018-09-15T12:25:16.555Z,102028.11
2018-09-15T12:27:46.700Z,102037.65
2018-09-15T12:30:15.761Z,102046.17
2018-09-15T12:32:44.713Z,102048.64
2018-09-15T12:35:13.707Z,102049.16
2018-09-15T12:37:43.606Z,102042.78
2018-09-15T12:40:12.611Z,102043.55
2018-09-15T12:42:42.520Z,102044.34
2018-09-15T12:45:12.505Z,102048.69
2018-09-15T12:47:41.389Z,102045.41
2018-09-15T12:50:10.352Z,102048.44
2018-09-15T12:52:40.322Z,102038.76
2018-09-15T12:55:09.209Z,102043.45
2018-09-15T12:57:39.253Z,102035.16
2018-09-15T13:00:08.128Z,102036.06
2018-09-15T13:02:37.087Z,102030.09
2018-09-15T13:05:06.023Z,102032.95
2018-09-15T13:07:35.930Z,102031.77
2018-09-15T13:10:05.265Z,102023.06
2018-09-15T13:12:34.271Z,102021.52
2018-09-15T13:15:04.266Z,102019.98
2018-09-15T13:17:34.288Z,102029.45
2018-09-15T13:20:03.263Z,102022.41
2018-09-15T13:22:32.437Z,102026.34
2018-09-15T13:25:01.345Z,102030.09
2018-09-15T13:27:31.334Z,102027.86
2018-09-15T13:30:00.339Z,102025.05
2018-09-15T13:32:29.287Z,102013.29
2018-09-15T13:34:58.449Z,102006.93
2018-09-15T13:37:28.311Z,102015.53
2018-09-15T13:39:57.228Z,102021.78
2018-09-15T13:42:27.162Z,102026.13
2018-09-15T13:44:57.191Z,102027.70
2018-09-15T13:47:26.146Z,102024.46
2018-09-15T13:49:55.246Z,102031.75
2018-09-15T13:52:26.208Z,102030.06
2018-09-15T13:54:55.090Z,102037.70
2018-09-15T13:57:23.990Z,102040.77
2018-09-15T13:59:54.961Z,102031.53
2018-09-15T14:02:24.952Z,102035.16
2018-09-15T14:04:54.010Z,102036.58
2018-09-15T14:07:23.850Z,102034.66
2018-09-15T14:09:53.760Z,102031.72
2018-09-15T14:12:23.706Z,102030.97
2018-09-15T14:14:52.680Z,102031.31
2018-09-15T14:17:21.677Z,102035.70
2018-09-15T14:19:50.661Z,102031.91
2018-09-15T14:22:19.729Z,102031.11
2018-09-15T14:24:48.649Z,102022.16
2018-09-15T14:27:18.548Z,102017.13
2018-09-15T14:29:48.847Z,102020.72
2018-09-15T14:32:17.778Z,102022.25
2018-09-15T14:34:47.002Z,102019.05
2018-09-15T14:37:17.136Z,102019.05
2018-09-15T14:39:46.098Z,102022.50
2018-09-15T14:42:15.984Z,102022.80
2018-09-15T14:44:44.889Z,102019.82
2018-09-15T14:47:14.796Z,102022.76
2018-09-15T14:49:44.785Z,102021.44
2018-09-15T14:52:13.780Z,102023.61
2018-09-15T14:54:43.737Z,102032.39
2018-09-15T14:57:12.611Z,102033.80
2018-09-15T14:59:42.614Z,102034.31
2018-09-15T15:02:11.559Z,102040.37
2018-09-15T15:04:40.546Z,102033.76
2018-09-15T15:07:09.529Z,102033.76
2018-09-15T15:09:39.780Z,102023.14
2018-09-15T15:12:10.687Z,102022.34
2018-09-15T15:14:39.616Z,102021.52
2018-09-15T15:17:09.278Z,102018.03
2018-09-15T15:19:39.458Z,102022.98
2018-09-15T15:22:09.381Z,102017.47
2018-09-15T15:24:38.340Z,102017.56
2018-09-15T15:27:07.403Z,102014.83
2018-09-15T15:29:37.364Z,102005.84
2018-09-15T15:32:06.681Z,102011.03
2018-09-15T15:34:36.823Z,102019.99
2018-09-15T15:37:05.961Z,102012.70
2018-09-15T15:39:34.967Z,102013.80
2018-09-15T15:42:03.945Z,102016.75
2018-09-15T15:44:33.133Z,102020.28
2018-09-15T15:47:03.446Z,102017.90
2018-09-15T15:49:33.049Z,102018.12
2018-09-15T15:52:03.884Z,102021.40
2018-09-15T15:54:32.893Z,102027.20
2018-09-15T15:57:01.970Z,102034.79
2018-09-15T15:59:30.939Z,102032.06
2018-09-15T16:01:59.842Z,102030.95
2018-09-15T16:04:28.833Z,102031.50
2018-09-15T16:06:57.722Z,102032.06
2018-09-15T16:09:26.651Z,102029.63
2018-09-15T16:11:56.603Z,102029.38
2018-09-15T16:14:25.545Z,102024.51
2018-09-15T16:16:55.491Z,102022.16
2018-09-15T16:19:24.456Z,102029.87
2018-09-15T16:21:54.370Z,102017.77
2018-09-15T16:24:24.288Z,102025.45
2018-09-15T16:26:53.311Z,102034.70
2018-09-15T16:29:23.292Z,102025.06
2018-09-15T16:31:52.211Z,102024.51
2018-09-15T16:34:21.159Z,102028.01
2018-09-15T16:36:50.112Z,102026.60
2018-09-15T16:39:19.083Z,102029.03
2018-09-15T16:41:48.095Z,102026.52
2018-09-15T16:44:17.087Z,102024.86
2018-09-15T16:46:47.124Z,102020.97
2018-09-15T16:49:16.106Z,102023.32
2018-09-15T16:51:44.946Z,102025.44
2018-09-15T16:54:13.887Z,102028.09
2018-09-15T16:56:42.870Z,102022.30
2018-09-15T16:59:11.825Z,102021.95
2018-09-15T17:01:40.766Z,102019.43
2018-09-15T17:04:09.704Z,102021.86
2018-09-15T17:06:39.633Z,102020.41
2018-09-15T17:09:10.078Z,102017.63
2018-09-15T17:11:39.062Z,102020.06
2018-09-15T17:14:10.025Z,102027.73
2018-09-15T17:16:39.110Z,102024.95
2018-09-15T17:19:08.048Z,102027.08
2018-09-15T17:21:36.956Z,102021.88
2018-09-15T17:24:05.892Z,102025.92
2018-09-15T17:26:35.927Z,102023.96
2018-09-15T17:29:04.937Z,102036.18
2018-09-15T17:31:33.848Z,102026.94
2018-09-15T17:34:02.779Z,102033.86
2018-09-15T17:36:32.669Z,102031.08
2018-09-15T17:39:01.666Z,102031.25
2018-09-15T17:41:31.624Z,102030.52
2018-09-15T17:44:00.563Z,102039.70
2018-09-15T17:46:30.526Z,102046.91
2018-09-15T17:48:59.513Z,102041.86
2018-09-15T17:51:29.587Z,102040.84
2018-09-15T17:53:59.568Z,102048.25
2018-09-15T17:56:28.528Z,102044.48
2018-09-15T17:58:57.505Z,102047.84
2018-09-15T18:01:27.398Z,102055.66
2018-09-15T18:03:57.333Z,102053.94
2018-09-15T18:06:26.261Z,102054.60
2018-09-15T18:08:55.216Z,102054.48
2018-09-15T18:11:24.456Z,102062.98
2018-09-15T18:13:53.402Z,102062.09
2018-09-15T18:16:22.373Z,102062.66
2018-09-15T18:19:20.859Z,102064.81
2018-09-15T18:21:49.813Z,102065.89
2018-09-15T18:24:19.713Z,102071.58
2018-09-15T18:26:49.670Z,102071.38
2018-09-15T18:29:18.868Z,102073.28
2018-09-15T18:31:47.856Z,102076.23
2018-09-15T18:34:16.823Z,102071.25
2018-09-15T18:36:46.943Z,102080.05
2018-09-15T18:39:16.720Z,102068.50
2018-09-15T18:41:46.638Z,102075.91
2018-09-15T18:44:15.737Z,102078.05
2018-09-15T18:46:44.740Z,102075.83
2018-09-15T18:49:13.777Z,102085.28
2018-09-15T18:51:42.732Z,102088.61
2018-09-15T18:54:11.717Z,102087.87
2018-09-15T18:56:40.744Z,102090.52
2018-09-15T18:59:09.712Z,102094.53
2018-09-15T19:01:39.648Z,102089.11
2018-09-15T19:04:09.599Z,102090.91
2018-09-15T19:06:39.585Z,102099.67
2018-09-15T19:09:10.920Z,102099.59
2018-09-15T19:11:40.414Z,102097.55
2018-09-15T19:14:10.542Z,102101.71
2018-09-15T19:16:40.406Z,102103.14
2018-09-15T19:19:09.341Z,102098.92
2018-09-15T19:21:39.238Z,102102.55
2018-09-15T19:24:09.201Z,102104.83
2018-09-15T19:26:38.403Z,102112.51
2018-09-15T19:29:07.257Z,102109.17
2018-09-15T19:31:36.412Z,102106.61
2018-09-15T19:34:05.329Z,102111.04
2018-09-15T19:36:35.288Z,102113.52
2018-09-15T19:39:06.412Z,102114.88
2018-09-15T19:41:35.393Z,102113.83
2018-09-15T19:44:05.317Z,102116.98
2018-09-15T19:46:34.475Z,102124.61
2018-09-15T19:49:04.432Z,102127.21
2018-09-15T19:51:33.403Z,102128.02
2018-09-15T19:54:03.343Z,102135.88
2018-09-15T19:56:33.247Z,102129.21
2018-09-15T19:59:03.272Z,102137.58
2018-09-15T20:01:32.147Z,102130.64
2018-09-15T20:04:02.102Z,102131.80
2018-09-15T20:06:32.054Z,102127.66
2018-09-15T20:09:00.970Z,102134.30
2018-09-15T20:11:30.891Z,102136.83
2018-09-15T20:13:59.865Z,102132.44
2018-09-15T20:16:27.751Z,102135.81
2018-09-15T20:18:56.672Z,102136.07
2018-09-15T20:21:24.460Z,102135.67
2018-09-15T20:23:53.469Z,102138.55
2018-09-15T20:26:22.400Z,102136.24
2018-09-15T20:28:53.358Z,102135.64
2018-09-15T20:31:22.463Z,102130.50
2018-09-15T20:33:51.415Z,102135.92
2018-09-15T20:36:20.552Z,102137.52
2018-09-15T20:38:50.623Z,102133.16
2018-09-15T20:41:19.633Z,102135.84
2018-09-15T20:43:49.524Z,102138.33
2018-09-15T20:46:18.414Z,102137.45
2018-09-15T20:48:48.369Z,102135.78
2018-09-15T20:51:17.322Z,102140.22
2018-09-15T20:53:46.220Z,102133.69
2018-09-15T20:56:15.270Z,102126.01
2018-09-15T20:58:44.207Z,102129.48
2018-09-15T21:01:13.220Z,102132.02
2018-09-15T21:03:42.465Z,102126.88
2018-09-15T21:06:11.434Z,102134.93
2018-09-15T21:08:40.356Z,102132.13
2018-09-15T21:11:09.256Z,102127.18
2018-09-15T21:13:38.180Z,102125.45
2018-09-15T21:16:07.403Z,102120.80
2018-09-15T21:18:36.539Z,102124.31
2018-09-15T21:21:05.462Z,102122.13
2018-09-15T21:23:34.416Z,102120.11
2018-09-15T21:26:03.288Z,102119.52
2018-09-15T21:28:32.171Z,102126.19
2018-09-15T21:31:01.133Z,102121.69
2018-09-15T21:33:30.109Z,102122.64
2018-09-15T21:35:58.981Z,102130.33
2018-09-15T21:38:27.901Z,102130.05
2018-09-15T21:40:56.817Z,102134.98
2018-09-15T21:43:25.742Z,102136.64
2018-09-15T21:45:54.666Z,102138.44
2018-09-15T21:48:24.583Z,102133.53
2018-09-15T21:50:53.604Z,102130.68
2018-09-15T21:53:22.584Z,102143.42
2018-09-15T21:55:51.615Z,102135.96
2018-09-15T21:58:20.599Z,102134.14
2018-09-15T22:00:50.788Z,102136.84
2018-09-15T22:03:23.281Z,102142.86
2018-09-15T22:05:53.242Z,102139.43
2018-09-15T22:08:23.203Z,102141.00
2018-09-15T22:10:52.631Z,102135.27
2018-09-15T22:13:21.646Z,102138.61
2018-09-15T22:15:50.824Z,102136.66
2018-09-15T22:18:19.800Z,102132.78
2018-09-15T22:20:49.770Z,102137.38
2018-09-15T22:23:19.767Z,102133.45
2018-09-15T22:25:48.710Z,102129.95
2018-09-15T22:28:17.685Z,102126.52
2018-09-15T22:30:48.646Z,102131.72
2018-09-15T22:33:17.795Z,102120.69
2018-09-15T22:35:46.696Z,102124.75
2018-09-15T22:38:15.643Z,102135.89
2018-09-15T22:40:44.602Z,102139.27
2018-09-15T22:43:13.569Z,102125.48
2018-09-15T22:45:42.531Z,102130.89
2018-09-15T22:48:11.438Z,102129.66
2018-09-15T22:50:41.423Z,102123.55
2018-09-15T22:53:10.465Z,102125.72
2018-09-15T22:55:39.457Z,102121.27
2018-09-15T22:58:09.420Z,102123.39
2018-09-15T23:00:38.595Z,102121.63
2018-09-15T23:03:07.486Z,102124.63
2018-09-15T23:05:37.481Z,102125.77
2018-09-15T23:08:06.484Z,102124.83
2018-09-15T23:10:35.516Z,102114.22
2018-09-15T23:13:04.410Z,102120.77
2018-09-15T23:15:33.498Z,102125.14
2018-09-15T23:18:02.493Z,102120.56
2018-09-15T23:20:31.625Z,102127.65
2018-09-15T23:23:00.638Z,102123.77
2018-09-15T23:25:29.542Z,102125.78
2018-09-15T23:27:59.624Z,102127.86
2018-09-15T23:30:29.664Z,102124.59
2018-09-15T23:32:58.601Z,102121.81
2018-09-15T23:35:27.848Z,102121.17
2018-09-15T23:37:56.803Z,102123.16
2018-09-15T23:40:26.101Z,102127.34
2018-09-15T23:42:55.085Z,102124.53
2018-09-15T23:45:24.409Z,102123.49
2018-09-15T23:47:54.385Z,102121.00
2018-09-15T23:50:23.373Z,102123.91
2018-09-15T23:52:52.264Z,102124.31
2018-09-15T23:55:21.246Z,102123.41
2018-09-15T23:57:50.260Z,102111.22
